Time;durP1;ratioP1;P1;durP2;ratioP2;P2;SDS_P1;SDS_P2;PMS_P1;PMS_P2;Temp;Humidity;BMP_temperature;BMP_pressure;BME280_temperature;BME280_humidity;BME280_pressure;Samples;Min_cycle;Max_cycle;Signal;HPM_P1;HPM_P2
2022/12/16 00:02:20;;;;;;;16.45;8.80;;;1.90;99.90;;;;;;5063399;28;20052;-64
2022/12/16 00:04:46;;;;;;;15.48;8.52;;;1.90;99.90;;;;;;5063409;28;20048;-64
2022/12/16 00:07:12;;;;;;;15.05;8.25;;;1.90;99.90;;;;;;5065396;28;20038;-64
2022/12/16 00:09:37;;;;;;;13.88;7.63;;;1.90;99.90;;;;;;5068486;28;20044;-64
2022/12/16 00:12:03;;;;;;;15.18;8.27;;;1.90;99.90;;;;;;5066098;28;20036;-64
2022/12/16 00:14:29;;;;;;;12.68;7.40;;;1.90;99.90;;;;;;5054930;28;20036;-64
2022/12/16 00:16:55;;;;;;;11.70;7.00;;;1.90;99.90;;;;;;5063168;28;20411;-64
2022/12/16 00:19:21;;;;;;;18.08;8.43;;;1.80;99.90;;;;;;5061671;28;20032;-64
2022/12/16 00:21:46;;;;;;;12.70;8.38;;;1.80;99.90;;;;;;5028051;28;20101;-64
2022/12/16 00:24:12;;;;;;;14.45;7.88;;;1.80;99.90;;;;;;5043083;28;20032;-63
2022/12/16 00:26:38;;;;;;;14.93;7.57;;;1.70;99.90;;;;;;5060737;28;20533;-64
2022/12/16 00:29:06;;;;;;;15.02;6.80;;;1.70;99.90;;;;;;5058860;28;20039;-64
2022/12/16 00:31:32;;;;;;;15.73;8.27;;;1.70;99.90;;;;;;5059529;28;20040;-63
2022/12/16 00:33:58;;;;;;;12.93;7.00;;;1.70;99.90;;;;;;5042805;28;20040;-64
2022/12/16 00:36:24;;;;;;;17.27;6.97;;;1.60;99.90;;;;;;5060475;28;20079;-64
2022/12/16 00:38:51;;;;;;;14.63;7.65;;;1.60;99.90;;;;;;5043713;28;20068;-64
2022/12/16 00:41:17;;;;;;;19.73;7.90;;;1.60;99.90;;;;;;5054683;28;20111;-64
2022/12/16 00:43:42;;;;;;;12.65;6.50;;;1.50;99.90;;;;;;5045809;28;20571;-64
2022/12/16 00:46:08;;;;;;;19.55;6.85;;;1.50;99.90;;;;;;5064982;28;20377;-64
2022/12/16 00:48:34;;;;;;;13.45;6.47;;;1.50;99.90;;;;;;5061073;28;20059;-63
2022/12/16 00:50:59;;;;;;;13.55;5.93;;;1.40;99.90;;;;;;5046805;28;20132;-64
2022/12/16 00:53:28;;;;;;;16.77;8.50;;;1.40;99.90;;;;;;5064683;28;20113;-64
2022/12/16 00:56:05;;;;;;;14.57;6.47;;;1.40;99.90;;;;;;5048229;28;20044;-64
2022/12/16 00:58:30;;;;;;;11.38;6.70;;;1.40;99.90;;;;;;5063519;28;20161;-64
2022/12/16 01:01:00;;;;;;;14.40;6.45;;;1.30;99.90;;;;;;5054642;28;20040;-64
2022/12/16 01:03:26;;;;;;;13.23;6.38;;;1.30;99.90;;;;;;5036891;28;20048;-63
2022/12/16 01:05:51;;;;;;;19.13;6.10;;;1.30;99.90;;;;;;5055763;28;20036;-63
2022/12/16 01:08:17;;;;;;;9.38;5.57;;;1.30;99.90;;;;;;5061549;28;20453;-64
2022/12/16 01:10:53;;;;;;;10.10;5.75;;;1.20;99.90;;;;;;5057626;28;20040;-64
2022/12/16 01:13:20;;;;;;;10.27;5.65;;;1.20;99.90;;;;;;5063682;28;20071;-64
2022/12/16 01:15:46;;;;;;;9.50;6.40;;;1.20;99.90;;;;;;5061513;28;20127;-64
2022/12/16 01:18:11;;;;;;;10.68;5.72;;;1.20;99.90;;;;;;5066370;28;20155;-64
2022/12/16 01:20:37;;;;;;;13.63;5.93;;;1.20;99.90;;;;;;5059440;28;20037;-63
2022/12/16 01:23:03;;;;;;;11.90;6.22;;;1.10;99.90;;;;;;5060470;28;20098;-64
2022/12/16 01:25:29;;;;;;;12.07;6.30;;;1.10;99.90;;;;;;5063108;28;20047;-64
2022/12/16 01:27:55;;;;;;;12.00;6.38;;;1.10;99.90;;;;;;5062323;28;20446;-64
2022/12/16 01:30:22;;;;;;;14.60;6.38;;;1.10;99.90;;;;;;5062193;28;20057;-63
2022/12/16 01:32:48;;;;;;;13.90;6.68;;;1.10;99.90;;;;;;5062688;28;20329;-64
2022/12/16 01:35:14;;;;;;;14.35;6.40;;;1.10;99.90;;;;;;5044254;28;20037;-64
2022/12/16 01:37:40;;;;;;;12.90;6.65;;;1.00;99.90;;;;;;5060332;28;20052;-63
2022/12/16 01:40:08;;;;;;;14.18;6.78;;;1.00;99.90;;;;;;5062120;28;20655;-64
2022/12/16 01:42:33;;;;;;;13.35;6.30;;;1.00;99.90;;;;;;5043714;28;20048;-63
2022/12/16 01:45:27;;;;;;;16.90;7.18;;;1.00;99.90;;;;;;5047185;28;20033;-64
2022/12/16 01:47:57;;;;;;;17.83;7.50;;;1.00;99.90;;;;;;5059890;28;20145;-64
2022/12/16 01:50:24;;;;;;;13.55;7.15;;;1.00;99.90;;;;;;5039643;28;21037;-65
2022/12/16 01:52:55;;;;;;;10.88;6.68;;;1.00;99.90;;;;;;5064839;28;20051;-64
2022/12/16 01:55:47;;;;;;;16.23;7.13;;;1.00;99.90;;;;;;5060460;28;20045;-64
2022/12/16 01:58:18;;;;;;;13.13;7.13;;;1.00;99.90;;;;;;5047385;28;20124;-64
2022/12/16 02:00:43;;;;;;;14.00;7.18;;;1.00;99.90;;;;;;5041492;28;20421;-64
2022/12/16 02:03:10;;;;;;;12.18;7.25;;;1.00;99.90;;;;;;5060928;28;20036;-64
2022/12/16 02:05:39;;;;;;;12.30;6.95;;;1.00;99.90;;;;;;5045659;28;20075;-64
2022/12/16 02:08:04;;;;;;;17.92;7.13;;;1.00;99.90;;;;;;5043514;28;20189;-64
2022/12/16 02:10:42;;;;;;;11.00;6.10;;;1.00;99.90;;;;;;5060104;28;20136;-64
2022/12/16 02:16:03;;;;;;;14.98;7.15;;;0.90;99.90;;;;;;5055271;28;20061;-55
2022/12/16 02:19:00;;;;;;;13.40;6.40;;;0.90;99.90;;;;;;5043881;28;20052;-56
2022/12/16 02:21:52;;;;;;;13.32;6.43;;;0.90;99.90;;;;;;5061388;28;20139;-58
2022/12/16 02:24:36;;;;;;;14.30;7.35;;;0.80;99.90;;;;;;5060295;28;20359;-55
2022/12/16 02:27:08;;;;;;;14.52;6.38;;;0.80;99.90;;;;;;5061169;28;20052;-58
2022/12/16 02:29:37;;;;;;;16.88;7.68;;;0.80;99.90;;;;;;5053469;28;20105;-59
2022/12/16 02:32:40;;;;;;;13.25;6.38;;;0.70;99.90;;;;;;5052320;28;20105;-57
2022/12/16 02:35:30;;;;;;;15.13;6.88;;;0.70;99.90;;;;;;5043123;28;20263;-57
2022/12/16 02:38:10;;;;;;;15.63;7.00;;;0.70;99.90;;;;;;5060420;28;20048;-56
2022/12/16 02:41:04;;;;;;;14.20;7.72;;;0.60;99.90;;;;;;5056657;28;20790;-56
2022/12/16 02:43:29;;;;;;;12.02;6.82;;;0.60;99.90;;;;;;5061562;28;20043;-59
2022/12/16 02:45:55;;;;;;;17.15;7.95;;;0.60;99.90;;;;;;5053448;28;20423;-56
2022/12/16 02:48:21;;;;;;;15.00;7.72;;;0.60;99.90;;;;;;5057544;28;20403;-54
2022/12/16 02:50:49;;;;;;;15.32;7.88;;;0.60;99.90;;;;;;5054677;28;20048;-54
2022/12/16 02:53:16;;;;;;;16.35;8.07;;;0.60;99.90;;;;;;5059262;28;20068;-56
2022/12/16 02:56:05;;;;;;;17.02;7.70;;;0.60;99.90;;;;;;5047589;28;20048;-58
2022/12/16 02:58:50;;;;;;;15.70;7.88;;;0.60;99.90;;;;;;5049076;28;20037;-58
2022/12/16 03:01:26;;;;;;;13.48;7.15;;;0.60;99.90;;;;;;5073270;28;20494;-57
2022/12/16 03:04:09;;;;;;;16.05;8.05;;;0.60;99.90;;;;;;5043744;28;20076;-58
2022/12/16 03:06:37;;;;;;;18.08;7.38;;;0.50;99.90;;;;;;5046097;28;20243;-59
2022/12/16 03:09:07;;;;;;;12.73;7.32;;;0.50;99.90;;;;;;5045482;28;20552;-58
2022/12/16 03:11:34;;;;;;;12.90;6.53;;;0.50;99.90;;;;;;5054698;28;20451;-58
2022/12/16 03:14:02;;;;;;;15.63;6.63;;;0.50;99.90;;;;;;5061321;28;20048;-59
2022/12/16 03:16:31;;;;;;;12.70;6.47;;;0.50;99.90;;;;;;5057935;28;20032;-58
2022/12/16 03:19:03;;;;;;;11.90;5.82;;;0.50;99.90;;;;;;5065947;28;20086;-56
2022/12/16 03:21:37;;;;;;;13.32;6.65;;;0.50;99.90;;;;;;5043274;28;20454;-58
2022/12/16 03:24:07;;;;;;;13.73;6.18;;;0.60;99.90;;;;;;5069390;28;20045;-57
2022/12/16 03:26:39;;;;;;;8.65;5.97;;;0.60;99.90;;;;;;5055372;28;20041;-58
2022/12/16 03:29:18;;;;;;;10.35;6.13;;;0.70;99.90;;;;;;5076888;28;20087;-59
2022/12/16 03:31:53;;;;;;;12.23;6.30;;;0.70;99.90;;;;;;5060761;28;20046;-57
2022/12/16 03:34:49;;;;;;;10.43;6.60;;;0.70;99.90;;;;;;5056095;28;20051;-59
2022/12/16 03:37:15;;;;;;;8.52;4.78;;;0.80;99.90;;;;;;5005777;28;20217;-57
2022/12/16 03:39:46;;;;;;;9.77;5.88;;;0.80;99.90;;;;;;5064361;28;20041;-59
2022/12/16 03:42:14;;;;;;;14.15;7.38;;;0.90;99.90;;;;;;5061078;28;20053;-58
2022/12/16 03:44:42;;;;;;;11.15;5.13;;;0.90;99.90;;;;;;5038347;28;20072;-56
2022/12/16 03:47:08;;;;;;;13.88;6.15;;;0.90;99.90;;;;;;5057882;28;20124;-59
2022/12/16 03:49:34;;;;;;;10.80;5.30;;;0.90;99.90;;;;;;5054345;28;20135;-57
2022/12/16 03:51:59;;;;;;;11.68;5.70;;;0.90;99.90;;;;;;5038821;28;20502;-57
2022/12/16 03:54:25;;;;;;;10.88;5.63;;;0.90;99.90;;;;;;5062365;28;20076;-56
2022/12/16 03:56:51;;;;;;;10.80;6.22;;;0.90;99.90;;;;;;5061788;28;20064;-59
2022/12/16 03:59:17;;;;;;;9.52;5.95;;;1.00;99.90;;;;;;5028916;28;20247;-56
2022/12/16 04:01:43;;;;;;;9.68;5.57;;;1.10;99.90;;;;;;5041678;28;20048;-57
2022/12/16 04:04:09;;;;;;;11.60;6.05;;;1.10;99.90;;;;;;5056597;28;20047;-58
2022/12/16 04:06:34;;;;;;;11.50;5.95;;;1.10;99.90;;;;;;5053496;28;20052;-56
2022/12/16 04:09:00;;;;;;;12.43;5.57;;;1.10;99.90;;;;;;5057692;28;20112;-57
2022/12/16 04:25:27;;;;;;;10.40;5.72;;;1.20;99.90;;;;;;5057487;28;20089;-56
2022/12/16 04:27:53;;;;;;;11.68;5.68;;;1.20;99.90;;;;;;5054924;28;20040;-57
2022/12/16 04:30:20;;;;;;;8.52;5.15;;;1.30;99.90;;;;;;5079725;28;20037;-61
